Cap Castillo — A8PI5 — position and weather

sailwx.info

Track history (hours):
 
Tides and Currents Weather Stations Pressure Air Temp Water Temp Dewpoint Dewpoint Depression Visibility Wind Speed Wind Dir Waves Ship Positions

Cap Castillo

Last reported at 2016-Nov-27 04:33 UTC. Time now 2016-Dec-05 20:36 UTC.
Position S 00°10' W 047°49'.
Warning: this ship's position is 8 days out of date.

Length 215 m; draft 10.6 m.

Type: Ship. MMSI: 636091558.

Date/timePositionNaut miles runAvg speedWind from/ knotsBaromVisibWave heightAir tempDewpointWater temp
2016-Nov-27 04:33S 00°10' W 047°49'1413.9
2016-Nov-27 03:31S 00°19' W 048°01'1616.8
2016-Nov-27 02:34S 00°27' W 048°14'1817.4
2016-Nov-27 01:33S 00°42' W 048°24'1814.0
2016-Nov-27 00:17S 00°59' W 048°26'1115.1
2016-Nov-26 23:33S 01°08' W 048°32'1211.7
2016-Nov-26 22:33S 01°18' W 048°38'1615.7
2016-Nov-26 21:34S 01°32' W 048°45'0 0.1
2016-Nov-26 17:08S 01°32' W 048°45'0 0.0
2016-Nov-26 12:09S 01°32' W 048°45'0 0.0
2016-Nov-26 07:09S 01°32' W 048°45'0 0.0
2016-Nov-26 06:27S 01°32' W 048°45'4 5.1
2016-Nov-26 05:34S 01°28' W 048°44'1515.3
2016-Nov-26 04:34S 01°15' W 048°36'1010.4
2016-Nov-26 03:33S 01°06' W 048°30'1 1.4
2016-Nov-26 02:31S 01°05' W 048°29'0 0.1
2016-Nov-26 01:31S 01°05' W 048°29'2 2.1
2016-Nov-26 00:33S 01°03' W 048°28'1413.9
2016-Nov-25 23:32S 00°49' W 048°28'3215.3
2016-Nov-25 21:28S 00°23' W 048°10'1915.4
2016-Nov-25 20:12S 00°14' W 047°53'1514.4
2016-Nov-25 19:10S 00°12' W 047°38'  
2016-Nov-19 11:33S 23°05' W 043°01'16 7.8
2016-Nov-19 09:28S 22°53' W 043°12'0 0.0
2016-Nov-19 07:28S 22°53' W 043°12'0 0.0
2016-Nov-19 05:22S 22°53' W 043°12'0 0.0
2016-Nov-19 04:28S 22°53' W 043°12'0 0.0
2016-Nov-19 03:28S 22°53' W 043°12'0 0.0
2016-Nov-19 02:28S 22°53' W 043°12'0 0.0
2016-Nov-19 01:33S 22°53' W 043°12'5 5.0
2016-Nov-19 00:33S 22°56' W 043°08'7 6.6
2016-Nov-18 23:28S 23°03' W 043°06'0 0.0
2016-Nov-18 20:28S 23°03' W 043°06'0 0.0
2016-Nov-18 18:28S 23°03' W 043°06'0 0.0
2016-Nov-18 17:22S 23°03' W 043°06'0 0.0
2016-Nov-18 14:05S 23°03' W 043°06'5 3.3
2016-Nov-18 12:29S 23°07' W 043°10'17912.8
2016-Nov-17 22:33S 24°21' W 046°08'1211.7
2016-Nov-17 21:33S 24°16' W 046°19'17 8.8
2016-Nov-17 19:34S 23°58' W 046°18'0 0.1
2016-Nov-17 18:28S 23°58' W 046°18'0 0.0
2016-Nov-17 14:28S 23°58' W 046°18'0 0.0
2016-Nov-17 13:22S 23°58' W 046°18'0 0.0
2016-Nov-17 12:31S 23°58' W 046°18'0 0.0
2016-Nov-17 11:31S 23°58' W 046°18'  
Track history (hours):
 
Tides and Currents Weather Stations Pressure Air Temp Water Temp Dewpoint Dewpoint Depression Visibility Wind Speed Wind Dir Waves Ship Positions

Cap Castillo

Last reported at 2016-Nov-27 04:33 UTC. Time now 2016-Dec-05 20:36 UTC.
Position S 00°10' W 047°49'.
Warning: this ship's position is 8 days out of date.

Length 215 m; draft 10.6 m.

Type: Ship. MMSI: 636091558.

Date/timePositionNaut miles runAvg speedWind from/ knotsBaromVisibWave heightAir tempDewpointWater temp
2016-Nov-27 04:33S 00°10' W 047°49'1413.9
2016-Nov-27 03:31S 00°19' W 048°01'1616.8
2016-Nov-27 02:34S 00°27' W 048°14'1817.4
2016-Nov-27 01:33S 00°42' W 048°24'1814.0
2016-Nov-27 00:17S 00°59' W 048°26'1115.1
2016-Nov-26 23:33S 01°08' W 048°32'1211.7
2016-Nov-26 22:33S 01°18' W 048°38'1615.7
2016-Nov-26 21:34S 01°32' W 048°45'0 0.1
2016-Nov-26 17:08S 01°32' W 048°45'0 0.0
2016-Nov-26 12:09S 01°32' W 048°45'0 0.0
2016-Nov-26 07:09S 01°32' W 048°45'0 0.0
2016-Nov-26 06:27S 01°32' W 048°45'4 5.1
2016-Nov-26 05:34S 01°28' W 048°44'1515.3
2016-Nov-26 04:34S 01°15' W 048°36'1010.4
2016-Nov-26 03:33S 01°06' W 048°30'1 1.4
2016-Nov-26 02:31S 01°05' W 048°29'0 0.1
2016-Nov-26 01:31S 01°05' W 048°29'2 2.1
2016-Nov-26 00:33S 01°03' W 048°28'1413.9
2016-Nov-25 23:32S 00°49' W 048°28'3215.3
2016-Nov-25 21:28S 00°23' W 048°10'1915.4
2016-Nov-25 20:12S 00°14' W 047°53'1514.4
2016-Nov-25 19:10S 00°12' W 047°38'  
2016-Nov-19 11:33S 23°05' W 043°01'16 7.8
2016-Nov-19 09:28S 22°53' W 043°12'0 0.0
2016-Nov-19 07:28S 22°53' W 043°12'0 0.0
2016-Nov-19 05:22S 22°53' W 043°12'0 0.0
2016-Nov-19 04:28S 22°53' W 043°12'0 0.0
2016-Nov-19 03:28S 22°53' W 043°12'0 0.0
2016-Nov-19 02:28S 22°53' W 043°12'0 0.0
2016-Nov-19 01:33S 22°53' W 043°12'5 5.0
2016-Nov-19 00:33S 22°56' W 043°08'7 6.6
2016-Nov-18 23:28S 23°03' W 043°06'0 0.0
2016-Nov-18 20:28S 23°03' W 043°06'0 0.0
2016-Nov-18 18:28S 23°03' W 043°06'0 0.0
2016-Nov-18 17:22S 23°03' W 043°06'0 0.0
2016-Nov-18 14:05S 23°03' W 043°06'5 3.3
2016-Nov-18 12:29S 23°07' W 043°10'17912.8
2016-Nov-17 22:33S 24°21' W 046°08'1211.7
2016-Nov-17 21:33S 24°16' W 046°19'17 8.8
2016-Nov-17 19:34S 23°58' W 046°18'0 0.1
2016-Nov-17 18:28S 23°58' W 046°18'0 0.0
2016-Nov-17 14:28S 23°58' W 046°18'0 0.0
2016-Nov-17 13:22S 23°58' W 046°18'0 0.0
2016-Nov-17 12:31S 23°58' W 046°18'0 0.0
2016-Nov-17 11:31S 23°58' W 046°18'  

Dump ship's entire track history